Decoded Metar for LFRS (NANTES in FRANCE) (IATA:NTE) | Meteo·Mobile Aviation Weather
aviador You're here:

LFRS Decoded Metar

NANTES in FRANCE
Report Time2019-07-19 19:00:00
UTC Time2019-07-19 19:19:04
Flight Rules vfr VFR
Wind260° at 07 kt
W.Decomp.*RWY 21: 4.3 kt HW 5.5 kt RCW
Visibility9999 m
Phenomena:N/A
Clouds:N/A
Expected CloudBase > 2,800 ft AGL from Temp-Dew spread
CeilingNone
Temp23°C (ISA +8)
Dew Point16°C (65% RH)
AAT22.5°C
QNH1013 hPa
Density Alt1,283 ft
Elevation89 ft
Report Wrong Elevation
Raw Report
LFRS 191900Z AUTO 26007KT 230V300 CAVOK 23/16 Q1013 NOSIG=

Extra information for LFRS:More info

Metar Taf Metar & Taf Last 4 Metars F.Rules Stats Wind Profile Meteogram Temp Stats Airport Information Weather charts Add Link Nearby VenuesMetar ALERT Operation Metar Decoded Social comments